createdAt,value
2019-06-15T00:00:42.688Z,99.99
2019-06-15T00:01:42.700Z,99.99
2019-06-15T00:02:42.653Z,99.99
2019-06-15T00:03:42.643Z,99.99
2019-06-15T00:04:42.621Z,99.99
2019-06-15T00:05:42.609Z,99.99
2019-06-15T00:06:42.606Z,99.99
2019-06-15T00:07:42.577Z,99.99
2019-06-15T00:08:42.562Z,99.99
2019-06-15T00:09:42.547Z,99.99
2019-06-15T00:10:42.537Z,99.99
2019-06-15T00:11:42.547Z,99.99
2019-06-15T00:12:42.500Z,99.99
2019-06-15T00:13:42.484Z,99.99
2019-06-15T00:14:42.477Z,99.99
2019-06-15T00:15:42.463Z,99.99
2019-06-15T00:16:42.452Z,99.99
2019-06-15T00:17:42.423Z,99.99
2019-06-15T00:18:42.406Z,99.99
2019-06-15T00:19:42.398Z,99.99
2019-06-15T00:20:42.379Z,99.99
2019-06-15T00:21:42.378Z,99.99
2019-06-15T00:22:42.345Z,99.99
2019-06-15T00:23:42.331Z,99.99
2019-06-15T00:24:42.323Z,99.99
2019-06-15T00:25:42.320Z,99.99
2019-06-15T00:26:42.286Z,99.99
2019-06-15T00:27:42.270Z,99.99
2019-06-15T00:28:42.258Z,99.99
2019-06-15T00:29:42.238Z,99.99
2019-06-15T00:30:42.223Z,99.99
2019-06-15T00:31:42.219Z,99.99
2019-06-15T00:32:42.202Z,99.99
2019-06-15T00:33:42.177Z,99.99
2019-06-15T00:34:42.159Z,99.99
2019-06-15T00:35:42.160Z,99.99
2019-06-15T00:36:42.132Z,99.99
2019-06-15T00:37:42.115Z,99.99
2019-06-15T00:38:42.102Z,99.99
2019-06-15T00:39:42.085Z,99.99
2019-06-15T00:40:42.084Z,99.99
2019-06-15T00:41:42.052Z,99.99
2019-06-15T00:42:42.040Z,99.99
2019-06-15T00:43:42.025Z,99.99
2019-06-15T00:44:42.007Z,99.99
2019-06-15T00:45:42.007Z,99.99
2019-06-15T00:46:41.982Z,99.99
2019-06-15T00:47:41.961Z,99.99
2019-06-15T00:48:41.943Z,99.99
2019-06-15T00:49:41.931Z,99.99
2019-06-15T00:50:41.938Z,99.99
2019-06-15T00:51:41.901Z,99.99
2019-06-15T00:52:41.888Z,99.99
2019-06-15T00:53:41.868Z,99.99
2019-06-15T00:54:49.931Z,99.99
2019-06-15T00:55:41.843Z,99.99
2019-06-15T00:56:41.835Z,99.99
2019-06-15T00:57:41.812Z,99.99
2019-06-15T00:58:41.792Z,99.99
2019-06-15T00:59:41.776Z,99.99
2019-06-15T01:00:41.760Z,99.99
2019-06-15T01:01:41.762Z,99.99
2019-06-15T01:02:41.729Z,99.99
2019-06-15T01:03:41.712Z,99.99
2019-06-15T01:04:41.695Z,99.99
2019-06-15T01:05:41.716Z,99.99
2019-06-15T01:06:41.683Z,99.99
2019-06-15T01:07:41.652Z,99.99
2019-06-15T01:08:41.636Z,99.99
2019-06-15T01:09:41.623Z,99.99
2019-06-15T01:10:41.605Z,99.99
2019-06-15T01:11:41.607Z,99.99
2019-06-15T01:12:41.577Z,99.99
2019-06-15T01:13:41.561Z,99.99
2019-06-15T01:14:41.543Z,99.99
2019-06-15T01:15:41.528Z,99.99
2019-06-15T01:16:41.513Z,99.99
2019-06-15T01:17:41.510Z,99.99
2019-06-15T01:18:41.482Z,99.99
2019-06-15T01:19:41.466Z,99.99
2019-06-15T01:20:41.453Z,99.99
2019-06-15T01:21:41.432Z,99.99
2019-06-15T01:22:41.432Z,99.99
2019-06-15T01:23:41.404Z,99.99
2019-06-15T01:24:41.387Z,99.99
2019-06-15T01:25:41.371Z,99.99
2019-06-15T01:26:41.357Z,99.99
2019-06-15T01:27:41.356Z,99.99
2019-06-15T01:28:41.326Z,99.99
2019-06-15T01:29:41.311Z,99.99
2019-06-15T01:30:41.294Z,99.99
2019-06-15T01:31:41.280Z,99.99
2019-06-15T01:32:41.283Z,99.99
2019-06-15T01:33:41.250Z,99.99
2019-06-15T01:34:41.233Z,99.99
2019-06-15T01:35:41.217Z,99.99
2019-06-15T01:36:41.204Z,99.99
2019-06-15T01:37:41.186Z,99.99
2019-06-15T01:38:41.185Z,99.99
2019-06-15T01:39:41.155Z,99.99
2019-06-15T01:40:41.137Z,99.99
2019-06-15T01:41:41.127Z,99.99
2019-06-15T01:42:41.108Z,99.99
2019-06-15T01:43:41.106Z,99.99
2019-06-15T01:44:41.074Z,99.99
2019-06-15T01:45:41.061Z,99.99
2019-06-15T01:46:41.046Z,99.99
2019-06-15T01:47:41.029Z,99.99
2019-06-15T01:48:41.028Z,99.99
2019-06-15T01:49:40.997Z,99.99
2019-06-15T01:50:40.984Z,99.99
2019-06-15T01:51:40.968Z,99.99
2019-06-15T01:52:40.955Z,99.99
2019-06-15T01:53:40.949Z,99.99
2019-06-15T01:54:40.920Z,99.99
2019-06-15T01:55:40.905Z,99.99
2019-06-15T01:56:40.885Z,99.99
2019-06-15T01:57:40.873Z,99.99
2019-06-15T01:58:40.875Z,99.99
2019-06-15T01:59:40.843Z,99.99
2019-06-15T02:00:40.827Z,99.99
2019-06-15T02:01:40.815Z,99.99
2019-06-15T02:02:40.805Z,99.99
2019-06-15T02:03:40.780Z,99.99
2019-06-15T02:04:40.780Z,99.99
2019-06-15T02:05:40.747Z,99.99
2019-06-15T02:06:40.741Z,99.99
2019-06-15T02:07:40.718Z,99.99
2019-06-15T02:08:40.702Z,99.99
2019-06-15T02:09:40.715Z,99.99
2019-06-15T02:10:40.702Z,99.99
2019-06-15T05:02:43.058Z,99.99
2019-06-15T05:03:43.026Z,99.99
2019-06-15T05:04:43.076Z,99.99
2019-06-15T05:05:42.993Z,99.99
2019-06-15T05:06:42.972Z,99.99
2019-06-15T05:07:42.954Z,99.99
2019-06-15T05:08:42.939Z,99.99
2019-06-15T05:09:42.943Z,99.99
2019-06-15T05:10:42.906Z,99.99
2019-06-15T05:11:42.892Z,99.99
2019-06-15T05:12:42.873Z,99.99
2019-06-15T05:13:42.902Z,99.99
2019-06-15T05:14:42.858Z,99.99
2019-06-15T05:15:42.827Z,99.99
2019-06-15T05:16:42.810Z,99.99
2019-06-15T05:17:46.001Z,99.99
2019-06-15T05:18:42.791Z,99.99
2019-06-15T05:19:42.774Z,99.99
2019-06-15T05:20:42.765Z,99.99
2019-06-15T05:21:42.733Z,99.99
2019-06-15T06:20:04.108Z,99.99
2019-06-15T06:21:04.078Z,99.99
2019-06-15T06:22:04.060Z,99.99
2019-06-15T06:23:04.042Z,99.99
2019-06-15T06:24:04.040Z,99.99
2019-06-15T06:25:04.006Z,99.99
2019-06-15T06:26:03.987Z,99.99
2019-06-15T06:27:03.997Z,99.99
2019-06-15T06:28:03.953Z,99.99
2019-06-15T06:29:03.937Z,99.99
2019-06-15T06:30:03.939Z,99.99
2019-06-15T06:31:03.913Z,99.99
2019-06-15T06:32:03.889Z,99.99
2019-06-15T06:33:03.875Z,99.99
2019-06-15T06:34:03.862Z,99.99
2019-06-15T06:35:03.867Z,99.99
2019-06-15T06:36:06.224Z,99.99
2019-06-15T06:37:03.816Z,99.99
2019-06-15T06:38:03.809Z,99.99
2019-06-15T06:39:03.781Z,99.99
2019-06-15T06:40:03.766Z,99.99
2019-06-15T06:41:03.765Z,99.99
2019-06-15T06:42:03.737Z,99.99
2019-06-15T06:43:03.730Z,99.99
2019-06-15T06:44:03.708Z,99.99
2019-06-15T06:45:03.693Z,99.99
2019-06-15T06:46:03.694Z,99.99
2019-06-15T06:47:03.666Z,99.99
2019-06-15T06:48:03.653Z,99.99
2019-06-15T06:49:03.640Z,99.99
2019-06-15T06:50:03.625Z,99.99
2019-06-15T06:51:03.622Z,99.99
2019-06-15T06:52:03.592Z,99.99
2019-06-15T06:53:03.578Z,99.99
2019-06-15T06:54:03.567Z,99.99
2019-06-15T06:55:03.557Z,99.99
2019-06-15T06:56:03.550Z,99.99
2019-06-15T06:57:03.524Z,99.99
2019-06-15T06:58:03.506Z,99.99
2019-06-15T06:59:03.495Z,99.99
2019-06-15T07:00:03.484Z,99.99
2019-06-15T07:01:03.486Z,99.99
2019-06-15T07:02:03.473Z,99.99
2019-06-15T07:03:03.459Z,99.99
2019-06-15T07:04:03.422Z,99.99
2019-06-15T07:05:03.414Z,99.99
2019-06-15T07:06:03.400Z,99.99
2019-06-15T07:07:03.401Z,99.99
2019-06-15T07:08:03.378Z,99.99
2019-06-15T07:09:03.356Z,99.99
2019-06-15T07:10:03.344Z,99.99
2019-06-15T07:11:03.328Z,99.99
2019-06-15T07:12:03.362Z,99.99
2019-06-15T07:13:03.298Z,99.99
2019-06-15T07:14:03.284Z,99.99
2019-06-15T07:15:04.855Z,99.99
2019-06-15T07:16:03.258Z,99.99
2019-06-15T07:17:03.259Z,99.99
2019-06-15T07:18:03.233Z,99.99
2019-06-15T07:19:03.220Z,99.99
2019-06-15T07:20:03.218Z,99.99
2019-06-15T07:21:03.196Z,99.99
2019-06-15T07:22:03.194Z,99.99
2019-06-15T07:23:03.204Z,99.99
2019-06-15T07:24:03.285Z,99.99
2019-06-15T07:25:03.134Z,99.99
2019-06-15T07:26:03.121Z,99.99
2019-06-15T07:27:03.122Z,99.99
2019-06-15T07:28:07.994Z,99.99
2019-06-15T07:29:03.084Z,99.99
2019-06-15T07:30:03.068Z,99.99
2019-06-15T07:31:03.051Z,99.99
2019-06-15T07:32:03.065Z,99.99
2019-06-15T07:33:03.025Z,99.99
2019-06-15T07:34:03.015Z,99.99
2019-06-15T07:35:03.024Z,99.99
2019-06-15T07:36:03.042Z,99.99
2019-06-15T07:37:03.022Z,99.99
2019-06-15T07:38:02.969Z,99.99
2019-06-15T07:39:02.947Z,99.99
2019-06-15T07:40:02.933Z,99.99
2019-06-15T07:41:02.919Z,99.99
2019-06-15T07:42:02.907Z,99.99
2019-06-15T07:43:02.908Z,99.99
2019-06-15T07:50:44.357Z,99.99
2019-06-15T07:51:44.321Z,99.99
2019-06-15T07:52:44.326Z,99.99
2019-06-15T07:53:44.294Z,99.99
2019-06-15T07:54:44.280Z,99.99
2019-06-15T07:55:44.269Z,99.99
2019-06-15T07:56:44.255Z,99.99
2019-06-15T07:57:44.275Z,99.99
2019-06-15T07:58:44.226Z,99.99
2019-06-15T07:59:44.217Z,99.99
2019-06-15T08:00:44.204Z,99.99
2019-06-15T08:01:44.191Z,99.99
2019-06-15T08:02:44.175Z,99.99
2019-06-15T08:03:44.179Z,99.99
2019-06-15T08:04:44.153Z,99.99
2019-06-15T08:05:44.147Z,99.99
2019-06-15T08:06:44.134Z,99.40
2019-06-15T08:07:44.119Z,99.99
2019-06-15T08:08:44.128Z,99.99
2019-06-15T08:09:44.107Z,99.99
2019-06-15T08:10:44.093Z,99.99
2019-06-15T08:11:45.888Z,99.99
2019-06-15T08:12:44.058Z,99.99
2019-06-15T08:13:44.447Z,99.99
2019-06-15T08:14:44.034Z,99.99
2019-06-15T08:15:44.026Z,99.99
2019-06-15T08:16:44.023Z,99.99
2019-06-15T08:17:45.662Z,99.99
2019-06-15T08:18:44.015Z,99.99
2019-06-15T08:19:43.975Z,99.99
2019-06-15T08:20:43.962Z,99.99
2019-06-15T08:21:43.951Z,99.99
2019-06-15T08:22:43.943Z,99.99
2019-06-15T08:23:43.930Z,99.99
2019-06-15T08:24:43.929Z,99.99
2019-06-15T08:25:43.906Z,99.99
2019-06-15T08:26:43.890Z,99.99
2019-06-15T08:27:43.878Z,99.99
2019-06-15T08:28:43.897Z,99.99
2019-06-15T08:29:43.872Z,99.99
2019-06-15T08:30:43.843Z,99.99
2019-06-15T08:31:43.830Z,99.99
2019-06-15T08:32:43.824Z,99.99
2019-06-15T08:33:43.845Z,99.99
2019-06-15T08:34:43.832Z,99.99
2019-06-15T08:35:43.791Z,99.99
2019-06-15T08:36:51.543Z,99.99
2019-06-15T08:37:43.813Z,99.99
2019-06-15T08:38:43.746Z,99.99
2019-06-15T08:39:43.746Z,99.99
2019-06-15T08:40:43.721Z,99.99
2019-06-15T08:41:43.724Z,99.99
2019-06-15T08:42:43.699Z,99.99
2019-06-15T08:43:43.681Z,99.99
2019-06-15T08:44:43.698Z,99.99
2019-06-15T08:45:43.658Z,99.99
2019-06-15T08:46:43.646Z,99.99
2019-06-15T08:53:22.430Z,99.99
2019-06-15T08:54:22.404Z,99.99
2019-06-15T08:55:22.403Z,99.45
2019-06-15T08:56:22.373Z,99.16
2019-06-15T08:57:22.359Z,97.62
2019-06-15T08:58:22.346Z,95.36
2019-06-15T08:59:22.333Z,95.93
2019-06-15T09:00:22.346Z,94.68
2019-06-15T09:01:22.307Z,95.26
2019-06-15T09:02:22.293Z,95.54
2019-06-15T09:03:22.276Z,94.78
2019-06-15T09:04:22.268Z,95.26
2019-06-15T09:18:47.156Z,88.98
2019-06-15T09:19:47.117Z,87.34
2019-06-15T09:20:47.121Z,86.86
2019-06-15T09:21:47.095Z,88.15
2019-06-15T09:22:47.072Z,86.90
2019-06-15T09:23:47.058Z,87.05
2019-06-15T09:24:47.044Z,85.50
2019-06-15T09:25:47.029Z,86.47
2019-06-15T09:26:47.026Z,85.89
2019-06-15T09:27:47.002Z,87.44
2019-06-15T09:28:46.983Z,87.24
2019-06-15T09:29:46.972Z,85.74
2019-06-15T09:37:51.066Z,86.86
2019-06-15T09:38:51.034Z,86.18
2019-06-15T09:39:51.018Z,86.04
2019-06-15T09:40:51.005Z,84.50
2019-06-15T09:41:51.004Z,85.17
2019-06-15T09:42:50.975Z,84.54
2019-06-15T09:54:14.994Z,80.78
2019-06-15T09:55:14.964Z,80.39
2019-06-15T09:56:14.968Z,81.68
2019-06-15T09:57:14.948Z,81.59
2019-06-15T09:58:14.923Z,81.30
2019-06-15T09:59:25.720Z,80.72
2019-06-15T10:00:14.892Z,81.49
2019-06-15T10:01:14.880Z,81.55
2019-06-15T10:02:14.878Z,81.74
2019-06-15T10:03:14.850Z,81.16
2019-06-15T10:04:14.853Z,81.74
2019-06-15T10:05:14.822Z,81.98
2019-06-15T10:06:14.834Z,82.31
2019-06-15T10:07:15.039Z,80.95
2019-06-15T10:13:52.381Z,78.92
2019-06-15T10:14:52.352Z,79.80
2019-06-15T10:15:52.356Z,79.02
2019-06-15T10:16:52.342Z,78.83
2019-06-15T10:17:52.309Z,78.99
2019-06-15T10:18:52.378Z,78.75
2019-06-15T10:19:52.280Z,80.14
2019-06-15T10:20:52.274Z,79.81
2019-06-15T10:21:52.271Z,78.79
2019-06-15T10:22:52.243Z,77.86
2019-06-15T10:23:52.230Z,76.90
2019-06-15T10:24:52.217Z,75.54
2019-06-15T10:25:54.176Z,77.03
2019-06-15T10:26:52.216Z,77.03
2019-06-15T10:27:52.180Z,75.71
2019-06-15T10:28:52.168Z,75.97
2019-06-15T10:29:52.158Z,76.59
2019-06-15T10:30:52.142Z,75.91
2019-06-15T10:31:52.153Z,73.16
2019-06-15T10:32:52.117Z,72.26
2019-06-15T10:33:52.114Z,72.74
2019-06-15T10:34:52.102Z,74.00
2019-06-15T10:35:52.086Z,74.29
2019-06-15T10:36:52.083Z,74.83
2019-06-15T10:37:52.054Z,74.93
2019-06-15T10:38:52.042Z,75.89
2019-06-15T10:39:52.032Z,76.05
2019-06-15T10:40:52.017Z,77.30
2019-06-15T10:41:52.018Z,76.63
2019-06-15T10:42:51.993Z,77.30
2019-06-15T10:43:51.983Z,76.53
2019-06-15T10:44:52.037Z,76.68
2019-06-15T10:45:51.973Z,76.82
2019-06-15T10:46:51.960Z,76.82
2019-06-15T10:47:51.937Z,78.36
2019-06-15T10:48:51.920Z,79.33
2019-06-15T10:49:51.914Z,77.59
2019-06-15T10:50:51.897Z,78.75
2019-06-15T10:51:51.907Z,78.11
2019-06-15T10:52:51.895Z,77.92
2019-06-15T10:53:51.866Z,77.63
2019-06-15T10:54:51.848Z,77.67
2019-06-15T10:55:51.836Z,77.96
2019-06-15T10:56:51.820Z,77.90
2019-06-15T10:57:51.813Z,76.74
2019-06-15T10:58:51.810Z,76.70
2019-06-15T10:59:57.405Z,76.12
2019-06-15T11:00:51.771Z,76.22
2019-06-15T11:01:51.760Z,76.74
2019-06-15T11:02:51.762Z,77.19
2019-06-15T11:03:51.757Z,76.74
2019-06-15T11:04:51.727Z,77.61
2019-06-15T11:05:54.734Z,76.45
2019-06-15T11:06:51.704Z,77.71
2019-06-15T11:07:51.691Z,76.93
2019-06-15T11:08:51.697Z,77.09
2019-06-15T11:09:51.664Z,77.48
2019-06-15T11:10:51.658Z,78.44
2019-06-15T11:11:51.645Z,77.67
2019-06-15T11:12:51.652Z,78.06
2019-06-15T11:13:51.621Z,77.67
2019-06-15T11:14:51.653Z,77.48
2019-06-15T11:15:51.596Z,77.19
2019-06-15T11:16:51.588Z,77.26
2019-06-15T11:17:51.595Z,74.96
2019-06-15T11:18:51.560Z,75.93
2019-06-15T11:19:51.554Z,76.03
2019-06-15T11:20:51.541Z,75.06
2019-06-15T11:21:51.552Z,74.07
2019-06-15T11:22:51.545Z,74.48
2019-06-15T11:23:51.529Z,75.54
2019-06-15T11:24:51.494Z,76.51
2019-06-15T11:25:51.481Z,77.88
2019-06-15T11:26:51.470Z,78.56
2019-06-15T11:27:51.525Z,79.33
2019-06-15T11:28:51.445Z,79.43
2019-06-15T11:29:51.477Z,79.62
2019-06-15T11:30:51.512Z,79.24
2019-06-15T11:31:51.413Z,78.46
2019-06-15T11:32:51.419Z,78.46
2019-06-15T11:33:51.397Z,79.52
2019-06-15T11:34:51.382Z,80.78
2019-06-15T11:35:51.371Z,79.72
2019-06-15T11:36:51.354Z,80.30
2019-06-15T11:37:51.355Z,80.68
2019-06-15T11:38:51.374Z,80.26
2019-06-15T11:39:51.352Z,81.02
2019-06-15T11:40:51.311Z,80.74
2019-06-15T11:41:51.302Z,81.32
2019-06-15T11:42:51.294Z,80.64
2019-06-15T11:43:51.276Z,81.12
2019-06-15T11:44:51.255Z,80.93
2019-06-15T11:45:51.244Z,81.51
2019-06-15T11:46:51.230Z,81.60
2019-06-15T11:47:51.262Z,80.45
2019-06-15T11:48:51.214Z,81.60
2019-06-15T11:49:51.199Z,82.96
2019-06-15T11:50:51.180Z,81.22
2019-06-15T11:51:51.179Z,81.99
2019-06-15T11:52:51.171Z,82.18
2019-06-15T11:53:51.143Z,82.67
2019-06-15T11:54:51.130Z,81.90
2019-06-15T11:55:51.119Z,82.86
2019-06-15T11:56:51.112Z,84.01
2019-06-15T11:57:51.106Z,85.08
2019-06-15T11:58:51.081Z,82.67
2019-06-15T11:59:51.068Z,83.53
2019-06-15T12:00:51.054Z,81.99
2019-06-15T12:01:51.045Z,82.23
2019-06-15T12:02:51.062Z,82.81
2019-06-15T12:03:51.017Z,82.13
2019-06-15T12:04:58.434Z,80.49
2019-06-15T12:05:50.987Z,81.11
2019-06-15T12:06:50.974Z,80.82
2019-06-15T12:07:50.971Z,80.14
2019-06-15T12:08:50.970Z,80.57
2019-06-15T12:09:50.938Z,80.99
2019-06-15T12:10:50.925Z,79.00
2019-06-15T12:11:50.914Z,77.61
2019-06-15T12:12:50.898Z,78.67
2019-06-15T12:13:50.909Z,78.44
2019-06-15T12:14:50.878Z,79.83
2019-06-15T12:15:50.866Z,79.60
2019-06-15T12:16:50.857Z,80.47
2019-06-15T12:17:50.837Z,80.66
2019-06-15T12:18:50.875Z,80.43
2019-06-15T12:19:50.813Z,82.56
2019-06-15T12:20:50.802Z,82.07
2019-06-15T12:21:50.789Z,82.03
2019-06-15T12:22:50.776Z,81.93
2019-06-15T12:23:50.779Z,82.71
2019-06-15T12:24:50.756Z,80.97
2019-06-15T12:25:50.742Z,80.49
2019-06-15T12:26:50.727Z,81.30
2019-06-15T12:27:50.720Z,80.53
2019-06-15T12:28:50.750Z,79.85
2019-06-15T12:29:50.689Z,80.28
2019-06-15T12:30:50.679Z,79.54
2019-06-15T12:31:50.668Z,79.35
2019-06-15T12:32:50.654Z,80.03
2019-06-15T12:33:50.655Z,77.90
2019-06-15T12:34:50.629Z,77.96
2019-06-15T12:35:50.620Z,79.06
2019-06-15T12:36:50.609Z,77.86
2019-06-15T12:37:50.592Z,78.64
2019-06-15T12:38:50.626Z,77.51
2019-06-15T12:39:50.575Z,76.39
2019-06-15T12:40:50.566Z,74.88
2019-06-15T12:41:50.549Z,74.98
2019-06-15T12:42:50.540Z,76.14
2019-06-15T12:43:50.527Z,77.11
2019-06-15T12:44:50.526Z,76.43
2019-06-15T12:45:50.501Z,77.14
2019-06-15T12:46:50.488Z,75.32
2019-06-15T12:47:50.477Z,71.45
2019-06-15T12:48:50.465Z,70.03
2019-06-15T12:49:50.518Z,66.79
2019-06-15T12:50:50.449Z,66.79
2019-06-15T12:51:50.436Z,66.82
2019-06-15T12:52:50.426Z,67.21
2019-06-15T12:53:50.411Z,67.50
2019-06-15T12:54:50.413Z,66.24
2019-06-15T12:55:50.393Z,66.05
2019-06-15T12:56:50.380Z,66.24
2019-06-15T12:57:52.912Z,70.93
2019-06-15T12:58:50.364Z,68.79
2019-06-15T12:59:50.369Z,70.15
2019-06-15T13:01:02.382Z,71.34
2019-06-15T13:01:50.331Z,70.21
2019-06-15T13:02:50.321Z,70.73
2019-06-15T13:03:50.314Z,68.18
2019-06-15T13:04:50.303Z,68.51
2019-06-15T13:05:50.320Z,64.56
2019-06-15T13:06:50.282Z,65.20
2019-06-15T13:07:50.276Z,63.97
2019-06-15T13:08:50.266Z,65.08
2019-06-15T13:09:50.259Z,63.32
2019-06-15T13:10:50.258Z,64.65
2019-06-15T13:11:50.236Z,62.93
2019-06-15T13:12:50.229Z,64.49
2019-06-15T13:13:50.219Z,69.27
2019-06-15T13:14:50.285Z,72.34
2019-06-15T13:15:50.217Z,69.54
2019-06-15T13:16:50.201Z,69.28
2019-06-15T13:17:50.191Z,68.31
2019-06-15T13:18:50.176Z,67.28
2019-06-15T13:19:50.166Z,69.54
2019-06-15T13:20:50.171Z,71.44
2019-06-15T13:21:50.151Z,71.31
2019-06-15T13:22:50.150Z,72.11
2019-06-15T13:23:50.131Z,72.98
2019-06-15T13:24:50.128Z,75.23
2019-06-15T13:25:50.128Z,75.68
2019-06-15T13:26:50.105Z,76.06
2019-06-15T13:27:50.095Z,75.78
2019-06-15T13:28:51.247Z,78.25
2019-06-15T13:29:50.077Z,79.95
2019-06-15T13:30:50.081Z,81.30
2019-06-15T13:31:50.057Z,82.65
2019-06-15T13:32:50.045Z,83.09
2019-06-15T13:33:50.038Z,83.77
2019-06-15T13:34:50.027Z,86.28
2019-06-15T13:35:50.030Z,89.13
2019-06-15T13:36:50.005Z,89.90
2019-06-15T13:37:50.003Z,91.93
2019-06-15T13:38:49.987Z,91.16
2019-06-15T13:39:49.975Z,90.92
2019-06-15T13:40:49.992Z,91.60
2019-06-15T13:41:49.949Z,92.41
2019-06-15T13:42:49.940Z,90.48
2019-06-15T13:43:49.930Z,92.50
2019-06-15T13:44:49.915Z,90.62
2019-06-15T13:45:49.918Z,89.65
2019-06-15T13:46:49.894Z,87.27
2019-06-15T13:47:49.888Z,82.62
2019-06-15T13:48:49.869Z,85.03
2019-06-15T13:49:49.859Z,84.83
2019-06-15T13:50:49.858Z,81.31
2019-06-15T13:51:49.856Z,79.10
2019-06-15T13:52:49.823Z,74.96
2019-06-15T13:53:49.810Z,76.95
2019-06-15T13:54:49.806Z,77.75
2019-06-15T13:55:49.804Z,79.55
2019-06-15T13:56:49.775Z,82.47
2019-06-15T13:57:49.769Z,81.37
2019-06-15T13:58:49.771Z,80.79
2019-06-15T13:59:49.749Z,82.29
2019-06-15T14:00:49.751Z,83.70
2019-06-15T14:01:49.726Z,83.64
2019-06-15T14:02:49.720Z,85.73
2019-06-15T14:03:49.706Z,84.33
2019-06-15T14:04:49.697Z,85.01
2019-06-15T14:05:49.718Z,83.37
2019-06-15T14:06:49.675Z,84.39
2019-06-15T14:07:49.671Z,85.40
2019-06-15T14:08:49.650Z,84.53
2019-06-15T14:09:49.648Z,84.43
2019-06-15T14:10:49.632Z,82.89
2019-06-15T14:11:49.635Z,80.99
2019-06-15T14:12:49.606Z,81.32
2019-06-15T14:13:49.601Z,80.73
2019-06-15T14:14:49.584Z,77.16
2019-06-15T14:15:49.573Z,76.44
2019-06-15T14:16:49.577Z,71.62
2019-06-15T14:17:49.549Z,69.48
2019-06-15T14:18:49.539Z,71.88
2019-06-15T14:19:49.530Z,70.77
2019-06-15T14:20:49.518Z,69.58
2019-06-15T14:21:49.529Z,67.99
2019-06-15T14:22:49.499Z,67.83
2019-06-15T14:23:49.490Z,69.99
2019-06-15T14:24:49.479Z,70.32
2019-06-15T14:25:49.473Z,66.27
2019-06-15T14:26:49.476Z,62.32
2019-06-15T14:27:49.455Z,63.62
2019-06-15T14:28:49.466Z,63.02
2019-06-15T14:29:49.437Z,59.25
2019-06-15T14:30:49.427Z,58.91
2019-06-15T14:31:50.636Z,63.10
2019-06-15T14:32:49.415Z,63.51
2019-06-15T14:33:49.411Z,62.41
2019-06-15T14:34:49.396Z,64.72
2019-06-15T14:35:49.391Z,63.07
2019-06-15T14:36:49.386Z,64.33
2019-06-15T14:37:49.392Z,64.62
2019-06-15T14:38:49.372Z,61.92
2019-06-15T14:39:49.368Z,59.90
2019-06-15T14:40:49.362Z,59.79
2019-06-15T14:41:51.115Z,58.25
2019-06-15T14:42:49.347Z,58.09
2019-06-15T14:43:49.342Z,56.61
2019-06-15T14:44:49.331Z,54.24
2019-06-15T14:45:58.981Z,55.02
2019-06-15T14:46:49.337Z,54.88
2019-06-15T14:47:50.225Z,55.52
2019-06-15T14:48:49.308Z,58.15
2019-06-15T14:49:49.304Z,59.56
2019-06-15T14:50:49.298Z,57.79
2019-06-15T14:51:51.069Z,56.77
2019-06-15T14:52:49.297Z,54.83
2019-06-15T14:53:55.484Z,55.62
2019-06-15T14:54:49.279Z,56.47
2019-06-15T14:55:49.275Z,57.76
2019-06-15T14:56:49.283Z,55.46
2019-06-15T14:57:49.269Z,55.94
2019-06-15T14:58:49.263Z,56.62
2019-06-15T14:59:59.734Z,55.29
2019-06-15T15:00:49.253Z,56.30
2019-06-15T15:01:50.529Z,56.45
2019-06-15T15:02:49.243Z,56.45
2019-06-15T15:03:49.241Z,56.81
2019-06-15T15:04:49.237Z,58.00
2019-06-15T15:05:49.228Z,57.09
2019-06-15T15:06:49.240Z,56.14
2019-06-15T15:07:49.220Z,55.94
2019-06-15T15:08:49.224Z,54.93
2019-06-15T15:09:50.012Z,55.50
2019-06-15T15:10:49.213Z,57.92
2019-06-15T15:11:49.215Z,58.37
2019-06-15T15:12:49.200Z,60.03
2019-06-15T15:13:49.193Z,62.23
2019-06-15T15:14:49.190Z,61.24
2019-06-15T15:15:49.183Z,62.82
2019-06-15T15:16:49.196Z,63.01
2019-06-15T15:17:49.172Z,62.62
2019-06-15T15:18:49.168Z,60.74
2019-06-15T15:19:49.163Z,60.09
2019-06-15T15:20:49.174Z,58.64
2019-06-15T15:21:49.150Z,58.47
2019-06-15T15:22:49.160Z,58.89
2019-06-15T15:23:49.136Z,58.23
2019-06-15T15:24:49.130Z,58.59
2019-06-15T15:25:49.127Z,59.50
2019-06-15T15:26:49.153Z,58.73
2019-06-15T15:27:49.132Z,59.87
2019-06-15T15:28:49.124Z,60.03
2019-06-15T15:29:49.101Z,60.58
2019-06-15T15:30:49.094Z,61.46
2019-06-15T15:31:49.089Z,60.00
2019-06-15T15:32:49.095Z,59.12
2019-06-15T15:33:49.081Z,58.64
2019-06-15T15:34:49.068Z,58.54
2019-06-15T15:35:49.062Z,59.51
2019-06-15T15:36:49.060Z,58.64
2019-06-15T15:37:49.061Z,58.18
2019-06-15T15:38:49.042Z,58.28
2019-06-15T15:39:49.037Z,57.76
2019-06-15T15:40:49.028Z,58.44
2019-06-15T15:41:49.021Z,60.87
2019-06-15T15:42:49.029Z,60.19
2019-06-15T15:43:49.010Z,59.45
2019-06-15T15:44:49.001Z,61.91
2019-06-15T15:45:48.995Z,62.19
2019-06-15T15:46:48.988Z,61.04
2019-06-15T15:47:49.007Z,59.28
2019-06-15T15:48:48.976Z,58.34
2019-06-15T15:49:49.027Z,59.08
2019-06-15T15:50:49.032Z,58.95
2019-06-15T15:51:49.082Z,58.49
2019-06-15T15:52:49.043Z,55.91
2019-06-15T15:53:49.003Z,54.77
2019-06-15T15:54:49.053Z,55.09
2019-06-15T15:55:48.969Z,53.46
2019-06-15T15:56:49.023Z,52.39
2019-06-15T15:57:48.917Z,55.66
2019-06-15T15:58:49.005Z,55.50
2019-06-15T15:59:48.941Z,54.62
2019-06-15T16:00:48.938Z,54.43
2019-06-15T16:01:48.896Z,54.62
2019-06-15T16:02:52.049Z,54.79
2019-06-15T16:03:48.983Z,53.55
2019-06-15T16:04:48.886Z,53.55
2019-06-15T16:05:48.925Z,54.90
2019-06-15T16:06:48.979Z,56.34
2019-06-15T16:07:48.889Z,59.16
2019-06-15T16:08:49.607Z,60.02
2019-06-15T16:09:48.994Z,60.15
2019-06-15T16:10:48.958Z,57.95
2019-06-15T16:11:48.908Z,58.54
2019-06-15T16:12:48.919Z,59.15
2019-06-15T16:13:48.997Z,57.14
2019-06-15T16:14:48.899Z,57.76
2019-06-15T16:15:49.040Z,58.04
2019-06-15T16:16:48.829Z,57.61
2019-06-15T16:17:48.896Z,55.60
2019-06-15T16:18:48.909Z,54.26
2019-06-15T16:19:48.865Z,52.89
2019-06-15T16:20:48.939Z,53.99
2019-06-15T16:21:49.746Z,53.53
2019-06-15T16:22:48.917Z,52.14
2019-06-15T16:23:48.887Z,53.55
2019-06-15T16:24:48.793Z,52.73
2019-06-15T16:25:48.903Z,53.06
2019-06-15T16:26:48.875Z,53.80
2019-06-15T16:27:48.910Z,53.09
2019-06-15T16:28:48.901Z,54.21
2019-06-15T16:29:48.920Z,53.60
2019-06-15T16:31:04.770Z,51.97
2019-06-15T16:31:48.833Z,52.80
2019-06-15T16:33:00.389Z,54.35
2019-06-15T16:33:48.778Z,55.78
2019-06-15T16:34:48.799Z,55.74
2019-06-15T16:35:48.791Z,54.72
2019-06-15T16:36:48.784Z,54.60
2019-06-15T16:37:48.873Z,52.00
2019-06-15T16:38:48.742Z,51.70
2019-06-15T16:39:48.776Z,52.00
2019-06-15T16:40:48.745Z,52.36
2019-06-15T16:41:48.735Z,52.97
2019-06-15T16:42:48.741Z,54.83
2019-06-15T16:43:48.728Z,55.83
2019-06-15T16:44:48.742Z,55.39
2019-06-15T16:45:48.721Z,55.66
2019-06-15T16:46:48.722Z,53.85
2019-06-15T16:47:48.722Z,52.53
2019-06-15T16:48:48.717Z,52.83
2019-06-15T16:49:48.714Z,52.53
2019-06-15T16:50:48.722Z,52.75
2019-06-15T16:51:48.714Z,51.29
2019-06-15T16:52:48.712Z,52.83
2019-06-15T16:53:48.706Z,51.85
2019-06-15T16:54:48.702Z,52.36
2019-06-15T16:55:48.710Z,52.34
2019-06-15T16:56:48.703Z,53.20
2019-06-15T16:57:48.705Z,54.74
2019-06-15T16:58:48.693Z,54.25
2019-06-15T16:59:49.619Z,55.44
2019-06-15T17:00:48.705Z,54.44
2019-06-15T17:01:48.683Z,55.11
2019-06-15T17:02:48.684Z,52.75
2019-06-15T17:03:48.692Z,52.12
2019-06-15T17:04:48.696Z,49.71
2019-06-15T17:05:48.675Z,50.43
2019-06-15T17:06:48.671Z,49.78
2019-06-15T17:07:48.744Z,50.07
2019-06-15T17:08:48.668Z,51.41
2019-06-15T17:09:48.666Z,52.06
2019-06-15T17:10:48.679Z,53.26
2019-06-15T17:11:48.660Z,53.26
2019-06-15T17:12:48.656Z,53.06
2019-06-15T17:13:48.659Z,53.11
2019-06-15T17:14:48.669Z,53.55
2019-06-15T17:15:48.649Z,52.06
2019-06-15T17:16:48.656Z,52.67
2019-06-15T17:17:48.641Z,52.48
2019-06-15T17:18:48.647Z,51.77
2019-06-15T17:19:48.665Z,52.86
2019-06-15T17:20:48.650Z,53.97
2019-06-15T17:21:48.632Z,55.82
2019-06-15T17:22:48.639Z,56.89
2019-06-15T17:23:48.646Z,55.33
2019-06-15T17:24:48.616Z,55.36
2019-06-15T17:25:48.624Z,55.68
2019-06-15T17:26:48.612Z,54.64
2019-06-15T17:27:48.609Z,54.05
2019-06-15T17:28:48.603Z,53.06
2019-06-15T17:29:48.598Z,54.64